sensor_id;sensor_type;location;lat;lon;timestamp;P1;durP1;ratioP1;P2;durP2;ratioP2
78891;SDS011;68280;51.728;5.248;2023-02-28T00:01:09;1.90;;;1.10;;
78891;SDS011;68280;51.728;5.248;2023-02-28T00:03:37;2.50;;;1.20;;
78891;SDS011;68280;51.728;5.248;2023-02-28T00:06:06;2.40;;;1.40;;
78891;SDS011;68280;51.728;5.248;2023-02-28T00:08:35;2.10;;;1.20;;
78891;SDS011;68280;51.728;5.248;2023-02-28T00:11:04;2.10;;;1.40;;
78891;SDS011;68280;51.728;5.248;2023-02-28T00:13:35;3.00;;;1.80;;
78891;SDS011;68280;51.728;5.248;2023-02-28T00:16:06;2.50;;;1.20;;
78891;SDS011;68280;51.728;5.248;2023-02-28T00:18:36;2.20;;;1.40;;
78891;SDS011;68280;51.728;5.248;2023-02-28T00:21:05;2.40;;;1.50;;
78891;SDS011;68280;51.728;5.248;2023-02-28T00:23:34;1.60;;;1.20;;
78891;SDS011;68280;51.728;5.248;2023-02-28T00:26:03;2.50;;;1.50;;
78891;SDS011;68280;51.728;5.248;2023-02-28T00:28:31;2.10;;;1.30;;
78891;SDS011;68280;51.728;5.248;2023-02-28T00:31:00;3.00;;;1.20;;
78891;SDS011;68280;51.728;5.248;2023-02-28T00:33:29;2.10;;;1.30;;
78891;SDS011;68280;51.728;5.248;2023-02-28T00:36:04;1.90;;;1.30;;
78891;SDS011;68280;51.728;5.248;2023-02-28T00:38:34;1.80;;;1.20;;
78891;SDS011;68280;51.728;5.248;2023-02-28T00:41:03;3.50;;;1.60;;
78891;SDS011;68280;51.728;5.248;2023-02-28T00:43:33;2.00;;;1.40;;
78891;SDS011;68280;51.728;5.248;2023-02-28T00:46:02;3.10;;;1.60;;
78891;SDS011;68280;51.728;5.248;2023-02-28T00:48:31;2.40;;;1.20;;
78891;SDS011;68280;51.728;5.248;2023-02-28T00:51:00;2.00;;;1.20;;
78891;SDS011;68280;51.728;5.248;2023-02-28T00:53:29;2.20;;;1.20;;
78891;SDS011;68280;51.728;5.248;2023-02-28T00:55:57;3.50;;;1.50;;
78891;SDS011;68280;51.728;5.248;2023-02-28T00:58:26;2.30;;;1.70;;
78891;SDS011;68280;51.728;5.248;2023-02-28T01:00:54;2.60;;;1.40;;
78891;SDS011;68280;51.728;5.248;2023-02-28T01:03:23;2.80;;;1.60;;
78891;SDS011;68280;51.728;5.248;2023-02-28T01:05:51;2.90;;;1.30;;
78891;SDS011;68280;51.728;5.248;2023-02-28T01:08:20;2.80;;;1.40;;
78891;SDS011;68280;51.728;5.248;2023-02-28T01:10:48;2.20;;;1.30;;
78891;SDS011;68280;51.728;5.248;2023-02-28T01:13:16;2.00;;;1.30;;
78891;SDS011;68280;51.728;5.248;2023-02-28T01:15:45;2.00;;;1.30;;
78891;SDS011;68280;51.728;5.248;2023-02-28T01:18:15;2.80;;;1.60;;
78891;SDS011;68280;51.728;5.248;2023-02-28T01:20:44;2.10;;;1.40;;
78891;SDS011;68280;51.728;5.248;2023-02-28T01:23:12;2.50;;;1.40;;
78891;SDS011;68280;51.728;5.248;2023-02-28T01:25:40;1.60;;;1.20;;
78891;SDS011;68280;51.728;5.248;2023-02-28T01:28:09;2.40;;;1.20;;
78891;SDS011;68280;51.728;5.248;2023-02-28T01:30:37;1.60;;;1.30;;
78891;SDS011;68280;51.728;5.248;2023-02-28T01:33:05;2.20;;;1.20;;
78891;SDS011;68280;51.728;5.248;2023-02-28T01:35:34;1.40;;;1.10;;
78891;SDS011;68280;51.728;5.248;2023-02-28T01:38:02;2.50;;;1.40;;
78891;SDS011;68280;51.728;5.248;2023-02-28T01:40:30;2.60;;;1.60;;
78891;SDS011;68280;51.728;5.248;2023-02-28T01:42:59;2.30;;;1.30;;
78891;SDS011;68280;51.728;5.248;2023-02-28T01:45:27;2.40;;;1.40;;
78891;SDS011;68280;51.728;5.248;2023-02-28T01:47:58;3.00;;;1.30;;
78891;SDS011;68280;51.728;5.248;2023-02-28T01:50:33;2.40;;;1.40;;
78891;SDS011;68280;51.728;5.248;2023-02-28T01:53:05;1.80;;;1.30;;
78891;SDS011;68280;51.728;5.248;2023-02-28T01:55:39;2.20;;;1.00;;
78891;SDS011;68280;51.728;5.248;2023-02-28T01:58:09;2.30;;;1.60;;
78891;SDS011;68280;51.728;5.248;2023-02-28T02:00:38;1.90;;;1.20;;
78891;SDS011;68280;51.728;5.248;2023-02-28T02:03:08;2.30;;;1.50;;
78891;SDS011;68280;51.728;5.248;2023-02-28T02:05:39;2.20;;;1.30;;
78891;SDS011;68280;51.728;5.248;2023-02-28T02:08:09;2.10;;;1.10;;
78891;SDS011;68280;51.728;5.248;2023-02-28T02:10:41;2.10;;;1.20;;
78891;SDS011;68280;51.728;5.248;2023-02-28T02:13:22;2.20;;;1.20;;
78891;SDS011;68280;51.728;5.248;2023-02-28T02:16:02;2.00;;;1.20;;
78891;SDS011;68280;51.728;5.248;2023-02-28T02:18:40;1.90;;;1.10;;
78891;SDS011;68280;51.728;5.248;2023-02-28T02:21:20;1.70;;;1.10;;
78891;SDS011;68280;51.728;5.248;2023-02-28T02:24:29;2.20;;;1.20;;
78891;SDS011;68280;51.728;5.248;2023-02-28T02:27:19;1.80;;;1.20;;
78891;SDS011;68280;51.728;5.248;2023-02-28T02:30:05;1.60;;;1.40;;
78891;SDS011;68280;51.728;5.248;2023-02-28T02:33:03;1.90;;;1.20;;
78891;SDS011;68280;51.728;5.248;2023-02-28T02:35:43;1.90;;;1.20;;
78891;SDS011;68280;51.728;5.248;2023-02-28T02:38:19;1.60;;;1.10;;
78891;SDS011;68280;51.728;5.248;2023-02-28T02:40:58;1.70;;;1.20;;
78891;SDS011;68280;51.728;5.248;2023-02-28T02:43:32;2.50;;;1.10;;
78891;SDS011;68280;51.728;5.248;2023-02-28T02:46:05;2.50;;;1.50;;
78891;SDS011;68280;51.728;5.248;2023-02-28T02:48:40;1.80;;;1.10;;
78891;SDS011;68280;51.728;5.248;2023-02-28T02:51:11;2.00;;;1.20;;
78891;SDS011;68280;51.728;5.248;2023-02-28T02:53:44;2.50;;;1.20;;
78891;SDS011;68280;51.728;5.248;2023-02-28T02:56:16;2.50;;;1.20;;
78891;SDS011;68280;51.728;5.248;2023-02-28T02:58:47;1.60;;;1.10;;
78891;SDS011;68280;51.728;5.248;2023-02-28T03:01:20;1.50;;;1.00;;
78891;SDS011;68280;51.728;5.248;2023-02-28T03:03:52;1.70;;;1.00;;
78891;SDS011;68280;51.728;5.248;2023-02-28T03:06:22;3.20;;;1.50;;
78891;SDS011;68280;51.728;5.248;2023-02-28T03:08:51;2.20;;;1.20;;
78891;SDS011;68280;51.728;5.248;2023-02-28T03:16:56;2.50;;;1.10;;
78891;SDS011;68280;51.728;5.248;2023-02-28T03:19:40;1.60;;;1.10;;
78891;SDS011;68280;51.728;5.248;2023-02-28T03:22:32;1.70;;;1.10;;
78891;SDS011;68280;51.728;5.248;2023-02-28T03:25:13;3.30;;;1.60;;
78891;SDS011;68280;51.728;5.248;2023-02-28T03:27:48;2.20;;;1.20;;
78891;SDS011;68280;51.728;5.248;2023-02-28T03:30:26;2.70;;;1.00;;
78891;SDS011;68280;51.728;5.248;2023-02-28T03:33:02;1.70;;;1.10;;
78891;SDS011;68280;51.728;5.248;2023-02-28T03:35:36;1.80;;;1.10;;
78891;SDS011;68280;51.728;5.248;2023-02-28T03:38:08;2.20;;;1.10;;
78891;SDS011;68280;51.728;5.248;2023-02-28T03:40:42;3.50;;;1.10;;
78891;SDS011;68280;51.728;5.248;2023-02-28T03:43:14;1.80;;;1.20;;
78891;SDS011;68280;51.728;5.248;2023-02-28T03:45:49;4.00;;;1.10;;
78891;SDS011;68280;51.728;5.248;2023-02-28T03:48:19;1.80;;;1.20;;
78891;SDS011;68280;51.728;5.248;2023-02-28T03:50:53;1.80;;;1.00;;
78891;SDS011;68280;51.728;5.248;2023-02-28T03:53:25;2.20;;;1.20;;
78891;SDS011;68280;51.728;5.248;2023-02-28T03:55:56;2.10;;;1.00;;
78891;SDS011;68280;51.728;5.248;2023-02-28T03:58:29;2.40;;;1.30;;
78891;SDS011;68280;51.728;5.248;2023-02-28T04:01:03;1.70;;;1.10;;
78891;SDS011;68280;51.728;5.248;2023-02-28T04:03:38;1.80;;;1.20;;
78891;SDS011;68280;51.728;5.248;2023-02-28T04:06:07;2.50;;;1.10;;
78891;SDS011;68280;51.728;5.248;2023-02-28T04:08:43;2.50;;;1.10;;
78891;SDS011;68280;51.728;5.248;2023-02-28T04:11:16;2.00;;;1.20;;
78891;SDS011;68280;51.728;5.248;2023-02-28T04:13:47;1.90;;;1.10;;
78891;SDS011;68280;51.728;5.248;2023-02-28T04:16:16;2.00;;;1.10;;
78891;SDS011;68280;51.728;5.248;2023-02-28T04:18:44;2.30;;;1.20;;
78891;SDS011;68280;51.728;5.248;2023-02-28T04:21:12;1.70;;;1.20;;
78891;SDS011;68280;51.728;5.248;2023-02-28T04:23:41;2.80;;;1.20;;
78891;SDS011;68280;51.728;5.248;2023-02-28T04:26:09;2.00;;;1.20;;
78891;SDS011;68280;51.728;5.248;2023-02-28T04:28:38;1.70;;;1.10;;
78891;SDS011;68280;51.728;5.248;2023-02-28T04:31:06;1.80;;;0.90;;
78891;SDS011;68280;51.728;5.248;2023-02-28T04:33:35;1.80;;;0.90;;
78891;SDS011;68280;51.728;5.248;2023-02-28T04:36:06;1.90;;;1.30;;
78891;SDS011;68280;51.728;5.248;2023-02-28T04:38:35;1.90;;;1.20;;
78891;SDS011;68280;51.728;5.248;2023-02-28T04:41:05;2.30;;;1.00;;
78891;SDS011;68280;51.728;5.248;2023-02-28T04:43:33;1.50;;;0.90;;
78891;SDS011;68280;51.728;5.248;2023-02-28T04:46:02;1.70;;;1.30;;
78891;SDS011;68280;51.728;5.248;2023-02-28T04:48:32;1.60;;;1.00;;
78891;SDS011;68280;51.728;5.248;2023-02-28T04:51:02;1.70;;;1.00;;
78891;SDS011;68280;51.728;5.248;2023-02-28T04:53:32;2.40;;;1.50;;
78891;SDS011;68280;51.728;5.248;2023-02-28T04:56:01;2.50;;;1.40;;
78891;SDS011;68280;51.728;5.248;2023-02-28T04:58:29;1.30;;;1.00;;
78891;SDS011;68280;51.728;5.248;2023-02-28T05:01:02;1.80;;;1.10;;
78891;SDS011;68280;51.728;5.248;2023-02-28T05:03:42;2.00;;;1.10;;
78891;SDS011;68280;51.728;5.248;2023-02-28T05:06:11;1.70;;;1.00;;
78891;SDS011;68280;51.728;5.248;2023-02-28T05:08:40;1.80;;;1.10;;
78891;SDS011;68280;51.728;5.248;2023-02-28T05:11:17;1.60;;;0.90;;
78891;SDS011;68280;51.728;5.248;2023-02-28T05:13:47;1.50;;;1.10;;
78891;SDS011;68280;51.728;5.248;2023-02-28T05:16:16;2.20;;;1.20;;
78891;SDS011;68280;51.728;5.248;2023-02-28T05:18:45;1.40;;;0.90;;
78891;SDS011;68280;51.728;5.248;2023-02-28T05:21:21;1.90;;;1.10;;
78891;SDS011;68280;51.728;5.248;2023-02-28T05:23:52;1.50;;;1.10;;
78891;SDS011;68280;51.728;5.248;2023-02-28T05:26:21;1.90;;;1.20;;
78891;SDS011;68280;51.728;5.248;2023-02-28T05:28:50;1.30;;;0.90;;
78891;SDS011;68280;51.728;5.248;2023-02-28T05:31:18;2.70;;;0.80;;
78891;SDS011;68280;51.728;5.248;2023-02-28T05:33:47;1.50;;;0.90;;
78891;SDS011;68280;51.728;5.248;2023-02-28T05:36:15;1.50;;;1.00;;
78891;SDS011;68280;51.728;5.248;2023-02-28T05:38:43;1.80;;;1.20;;
78891;SDS011;68280;51.728;5.248;2023-02-28T05:41:14;1.40;;;1.20;;
78891;SDS011;68280;51.728;5.248;2023-02-28T05:43:43;1.90;;;1.20;;
78891;SDS011;68280;51.728;5.248;2023-02-28T05:46:11;1.90;;;0.90;;
78891;SDS011;68280;51.728;5.248;2023-02-28T05:48:40;1.30;;;0.80;;
78891;SDS011;68280;51.728;5.248;2023-02-28T05:53:38;1.60;;;1.00;;
78891;SDS011;68280;51.728;5.248;2023-02-28T05:56:06;1.30;;;0.80;;
78891;SDS011;68280;51.728;5.248;2023-02-28T05:58:34;1.50;;;0.90;;
78891;SDS011;68280;51.728;5.248;2023-02-28T06:03:49;1.30;;;1.00;;
78891;SDS011;68280;51.728;5.248;2023-02-28T06:06:17;1.50;;;1.00;;
78891;SDS011;68280;51.728;5.248;2023-02-28T06:08:46;1.40;;;1.00;;
78891;SDS011;68280;51.728;5.248;2023-02-28T06:11:14;1.70;;;0.90;;
78891;SDS011;68280;51.728;5.248;2023-02-28T06:13:42;3.60;;;1.00;;
78891;SDS011;68280;51.728;5.248;2023-02-28T06:16:10;2.00;;;1.10;;
78891;SDS011;68280;51.728;5.248;2023-02-28T06:18:39;1.60;;;1.00;;
78891;SDS011;68280;51.728;5.248;2023-02-28T06:21:07;2.50;;;0.80;;
78891;SDS011;68280;51.728;5.248;2023-02-28T06:23:35;1.50;;;0.90;;
78891;SDS011;68280;51.728;5.248;2023-02-28T06:26:05;1.30;;;0.90;;
78891;SDS011;68280;51.728;5.248;2023-02-28T06:28:34;1.90;;;1.00;;
78891;SDS011;68280;51.728;5.248;2023-02-28T06:31:06;2.40;;;1.10;;
78891;SDS011;68280;51.728;5.248;2023-02-28T06:33:36;1.20;;;0.80;;
78891;SDS011;68280;51.728;5.248;2023-02-28T06:36:05;1.20;;;0.80;;
78891;SDS011;68280;51.728;5.248;2023-02-28T06:38:34;1.80;;;1.00;;
78891;SDS011;68280;51.728;5.248;2023-02-28T06:41:03;2.20;;;1.00;;
78891;SDS011;68280;51.728;5.248;2023-02-28T06:43:33;2.00;;;0.90;;
78891;SDS011;68280;51.728;5.248;2023-02-28T06:46:03;3.30;;;1.10;;
78891;SDS011;68280;51.728;5.248;2023-02-28T06:48:34;2.40;;;1.30;;
78891;SDS011;68280;51.728;5.248;2023-02-28T06:51:03;1.90;;;0.80;;
78891;SDS011;68280;51.728;5.248;2023-02-28T06:53:33;3.60;;;1.20;;
78891;SDS011;68280;51.728;5.248;2023-02-28T06:56:04;2.80;;;1.00;;
78891;SDS011;68280;51.728;5.248;2023-02-28T06:58:34;2.60;;;1.00;;
78891;SDS011;68280;51.728;5.248;2023-02-28T07:01:03;3.00;;;1.00;;
78891;SDS011;68280;51.728;5.248;2023-02-28T07:03:32;2.80;;;1.10;;
78891;SDS011;68280;51.728;5.248;2023-02-28T07:06:04;3.60;;;0.90;;
78891;SDS011;68280;51.728;5.248;2023-02-28T07:08:32;2.70;;;1.20;;
78891;SDS011;68280;51.728;5.248;2023-02-28T07:11:02;2.50;;;1.00;;
78891;SDS011;68280;51.728;5.248;2023-02-28T07:13:31;1.70;;;0.90;;
78891;SDS011;68280;51.728;5.248;2023-02-28T07:15:59;1.70;;;0.90;;
78891;SDS011;68280;51.728;5.248;2023-02-28T07:18:30;1.60;;;0.70;;
78891;SDS011;68280;51.728;5.248;2023-02-28T07:20:58;2.90;;;0.90;;
78891;SDS011;68280;51.728;5.248;2023-02-28T07:23:27;1.50;;;0.90;;
78891;SDS011;68280;51.728;5.248;2023-02-28T07:25:55;2.30;;;1.00;;
78891;SDS011;68280;51.728;5.248;2023-02-28T07:28:24;1.60;;;0.80;;
78891;SDS011;68280;51.728;5.248;2023-02-28T07:30:52;2.10;;;1.20;;
78891;SDS011;68280;51.728;5.248;2023-02-28T07:33:20;1.40;;;0.70;;
78891;SDS011;68280;51.728;5.248;2023-02-28T07:35:48;2.30;;;1.30;;
78891;SDS011;68280;51.728;5.248;2023-02-28T07:38:17;2.70;;;1.00;;
78891;SDS011;68280;51.728;5.248;2023-02-28T07:40:45;1.40;;;0.80;;
78891;SDS011;68280;51.728;5.248;2023-02-28T07:43:13;1.70;;;0.80;;
78891;SDS011;68280;51.728;5.248;2023-02-28T07:45:41;1.50;;;0.90;;
78891;SDS011;68280;51.728;5.248;2023-02-28T07:48:10;2.30;;;0.90;;
78891;SDS011;68280;51.728;5.248;2023-02-28T07:50:38;2.60;;;1.00;;
78891;SDS011;68280;51.728;5.248;2023-02-28T07:53:06;1.70;;;0.70;;
78891;SDS011;68280;51.728;5.248;2023-02-28T07:55:35;1.90;;;0.90;;
78891;SDS011;68280;51.728;5.248;2023-02-28T07:58:03;4.50;;;1.00;;
78891;SDS011;68280;51.728;5.248;2023-02-28T08:00:31;3.10;;;0.90;;
78891;SDS011;68280;51.728;5.248;2023-02-28T08:02:59;2.40;;;0.80;;
78891;SDS011;68280;51.728;5.248;2023-02-28T08:05:28;1.50;;;0.80;;
78891;SDS011;68280;51.728;5.248;2023-02-28T08:07:56;2.60;;;1.00;;
78891;SDS011;68280;51.728;5.248;2023-02-28T08:10:24;2.40;;;0.90;;
78891;SDS011;68280;51.728;5.248;2023-02-28T08:12:53;2.60;;;0.70;;
78891;SDS011;68280;51.728;5.248;2023-02-28T08:15:21;1.80;;;0.80;;
78891;SDS011;68280;51.728;5.248;2023-02-28T08:17:50;2.20;;;1.10;;
78891;SDS011;68280;51.728;5.248;2023-02-28T08:20:19;3.10;;;0.90;;
78891;SDS011;68280;51.728;5.248;2023-02-28T08:22:47;1.30;;;0.80;;
78891;SDS011;68280;51.728;5.248;2023-02-28T08:25:16;2.30;;;1.00;;
78891;SDS011;68280;51.728;5.248;2023-02-28T08:27:45;2.10;;;0.90;;
78891;SDS011;68280;51.728;5.248;2023-02-28T08:32:43;2.30;;;0.60;;
78891;SDS011;68280;51.728;5.248;2023-02-28T08:35:11;1.60;;;0.70;;
78891;SDS011;68280;51.728;5.248;2023-02-28T08:37:39;1.90;;;0.90;;
78891;SDS011;68280;51.728;5.248;2023-02-28T08:40:09;1.30;;;0.70;;
78891;SDS011;68280;51.728;5.248;2023-02-28T08:42:37;1.90;;;0.80;;
78891;SDS011;68280;51.728;5.248;2023-02-28T08:45:07;1.80;;;0.70;;
78891;SDS011;68280;51.728;5.248;2023-02-28T08:47:36;1.70;;;0.80;;
78891;SDS011;68280;51.728;5.248;2023-02-28T08:50:06;2.60;;;0.80;;
78891;SDS011;68280;51.728;5.248;2023-02-28T08:52:35;1.20;;;0.70;;
78891;SDS011;68280;51.728;5.248;2023-02-28T08:55:04;1.30;;;0.60;;
78891;SDS011;68280;51.728;5.248;2023-02-28T08:57:33;1.50;;;0.80;;
78891;SDS011;68280;51.728;5.248;2023-02-28T09:00:02;1.30;;;0.50;;
78891;SDS011;68280;51.728;5.248;2023-02-28T09:02:32;2.90;;;0.90;;
78891;SDS011;68280;51.728;5.248;2023-02-28T09:05:00;1.60;;;0.80;;
78891;SDS011;68280;51.728;5.248;2023-02-28T09:07:29;1.70;;;0.70;;
78891;SDS011;68280;51.728;5.248;2023-02-28T09:09:57;1.20;;;0.80;;
78891;SDS011;68280;51.728;5.248;2023-02-28T09:12:25;1.50;;;0.80;;
78891;SDS011;68280;51.728;5.248;2023-02-28T09:19:49;1.40;;;0.60;;
78891;SDS011;68280;51.728;5.248;2023-02-28T09:22:17;2.50;;;0.60;;
78891;SDS011;68280;51.728;5.248;2023-02-28T09:24:46;1.30;;;0.60;;
78891;SDS011;68280;51.728;5.248;2023-02-28T09:27:14;2.40;;;0.60;;
78891;SDS011;68280;51.728;5.248;2023-02-28T09:29:42;1.40;;;0.70;;
78891;SDS011;68280;51.728;5.248;2023-02-28T09:32:10;1.10;;;0.60;;
78891;SDS011;68280;51.728;5.248;2023-02-28T09:34:38;1.30;;;0.50;;
78891;SDS011;68280;51.728;5.248;2023-02-28T09:37:07;2.20;;;0.70;;
78891;SDS011;68280;51.728;5.248;2023-02-28T09:39:35;0.90;;;0.70;;
78891;SDS011;68280;51.728;5.248;2023-02-28T09:42:04;4.40;;;0.80;;
78891;SDS011;68280;51.728;5.248;2023-02-28T09:44:39;1.80;;;0.70;;
78891;SDS011;68280;51.728;5.248;2023-02-28T09:47:12;1.00;;;0.50;;
78891;SDS011;68280;51.728;5.248;2023-02-28T09:49:45;3.40;;;0.70;;
78891;SDS011;68280;51.728;5.248;2023-02-28T09:52:15;1.20;;;0.70;;
78891;SDS011;68280;51.728;5.248;2023-02-28T09:54:45;1.10;;;0.60;;
78891;SDS011;68280;51.728;5.248;2023-02-28T09:57:16;1.40;;;0.70;;
78891;SDS011;68280;51.728;5.248;2023-02-28T09:59:56;2.90;;;0.90;;
78891;SDS011;68280;51.728;5.248;2023-02-28T10:02:48;1.30;;;0.60;;
78891;SDS011;68280;51.728;5.248;2023-02-28T10:05:24;1.10;;;0.60;;
78891;SDS011;68280;51.728;5.248;2023-02-28T10:08:00;1.10;;;0.60;;
78891;SDS011;68280;51.728;5.248;2023-02-28T10:10:34;1.60;;;0.70;;
78891;SDS011;68280;51.728;5.248;2023-02-28T10:13:06;1.90;;;0.60;;
78891;SDS011;68280;51.728;5.248;2023-02-28T10:15:46;1.50;;;0.60;;
78891;SDS011;68280;51.728;5.248;2023-02-28T10:18:19;1.60;;;0.70;;
78891;SDS011;68280;51.728;5.248;2023-02-28T10:20:51;1.10;;;0.60;;
78891;SDS011;68280;51.728;5.248;2023-02-28T10:23:24;2.10;;;0.70;;
78891;SDS011;68280;51.728;5.248;2023-02-28T10:25:57;1.50;;;0.60;;
78891;SDS011;68280;51.728;5.248;2023-02-28T10:28:27;1.50;;;0.60;;
78891;SDS011;68280;51.728;5.248;2023-02-28T10:30:56;1.40;;;0.50;;
78891;SDS011;68280;51.728;5.248;2023-02-28T10:33:25;1.80;;;0.60;;
78891;SDS011;68280;51.728;5.248;2023-02-28T10:35:57;2.20;;;0.70;;
78891;SDS011;68280;51.728;5.248;2023-02-28T10:38:27;1.20;;;0.50;;
78891;SDS011;68280;51.728;5.248;2023-02-28T10:41:05;1.00;;;0.40;;
78891;SDS011;68280;51.728;5.248;2023-02-28T10:43:35;1.70;;;0.70;;
78891;SDS011;68280;51.728;5.248;2023-02-28T10:46:05;1.00;;;0.50;;
78891;SDS011;68280;51.728;5.248;2023-02-28T10:48:41;2.30;;;0.60;;
78891;SDS011;68280;51.728;5.248;2023-02-28T10:51:11;1.50;;;0.60;;
78891;SDS011;68280;51.728;5.248;2023-02-28T10:53:45;1.70;;;0.50;;
78891;SDS011;68280;51.728;5.248;2023-02-28T10:56:17;2.20;;;0.60;;
78891;SDS011;68280;51.728;5.248;2023-02-28T10:58:48;1.50;;;0.50;;
78891;SDS011;68280;51.728;5.248;2023-02-28T11:01:21;1.30;;;0.50;;
78891;SDS011;68280;51.728;5.248;2023-02-28T11:03:51;1.60;;;0.60;;
78891;SDS011;68280;51.728;5.248;2023-02-28T11:06:20;1.10;;;0.60;;
78891;SDS011;68280;51.728;5.248;2023-02-28T11:08:52;1.40;;;0.60;;
78891;SDS011;68280;51.728;5.248;2023-02-28T11:11:22;1.10;;;0.50;;
78891;SDS011;68280;51.728;5.248;2023-02-28T11:13:54;1.50;;;0.60;;
78891;SDS011;68280;51.728;5.248;2023-02-28T11:16:33;4.40;;;0.70;;
78891;SDS011;68280;51.728;5.248;2023-02-28T11:19:04;1.10;;;0.60;;
78891;SDS011;68280;51.728;5.248;2023-02-28T11:21:46;1.60;;;0.70;;
78891;SDS011;68280;51.728;5.248;2023-02-28T11:24:21;2.20;;;0.50;;
78891;SDS011;68280;51.728;5.248;2023-02-28T11:26:52;0.70;;;0.50;;
78891;SDS011;68280;51.728;5.248;2023-02-28T11:29:23;1.60;;;0.60;;
78891;SDS011;68280;51.728;5.248;2023-02-28T11:32:03;1.20;;;0.50;;
78891;SDS011;68280;51.728;5.248;2023-02-28T11:34:43;2.00;;;0.80;;
78891;SDS011;68280;51.728;5.248;2023-02-28T11:37:13;1.70;;;0.50;;
78891;SDS011;68280;51.728;5.248;2023-02-28T11:39:44;0.80;;;0.40;;
78891;SDS011;68280;51.728;5.248;2023-02-28T11:42:18;1.20;;;0.60;;
78891;SDS011;68280;51.728;5.248;2023-02-28T11:45:02;2.40;;;0.50;;
78891;SDS011;68280;51.728;5.248;2023-02-28T11:47:40;1.20;;;0.60;;
78891;SDS011;68280;51.728;5.248;2023-02-28T11:50:18;2.00;;;0.50;;
78891;SDS011;68280;51.728;5.248;2023-02-28T11:52:54;0.90;;;0.50;;
78891;SDS011;68280;51.728;5.248;2023-02-28T11:55:27;1.30;;;0.50;;
78891;SDS011;68280;51.728;5.248;2023-02-28T11:58:05;1.10;;;0.50;;
78891;SDS011;68280;51.728;5.248;2023-02-28T12:01:00;1.00;;;0.50;;
78891;SDS011;68280;51.728;5.248;2023-02-28T12:03:39;1.90;;;0.70;;
78891;SDS011;68280;51.728;5.248;2023-02-28T12:06:22;1.20;;;0.60;;
78891;SDS011;68280;51.728;5.248;2023-02-28T12:09:00;1.60;;;0.70;;
78891;SDS011;68280;51.728;5.248;2023-02-28T12:11:46;1.80;;;0.50;;
78891;SDS011;68280;51.728;5.248;2023-02-28T12:14:22;1.30;;;0.50;;
78891;SDS011;68280;51.728;5.248;2023-02-28T12:17:06;1.60;;;0.50;;
78891;SDS011;68280;51.728;5.248;2023-02-28T12:19:48;0.80;;;0.40;;
78891;SDS011;68280;51.728;5.248;2023-02-28T12:22:25;0.90;;;0.40;;
78891;SDS011;68280;51.728;5.248;2023-02-28T12:28:06;1.20;;;0.50;;
78891;SDS011;68280;51.728;5.248;2023-02-28T12:30:38;1.20;;;0.50;;
78891;SDS011;68280;51.728;5.248;2023-02-28T12:33:14;0.90;;;0.50;;
78891;SDS011;68280;51.728;5.248;2023-02-28T12:35:47;1.10;;;0.50;;
78891;SDS011;68280;51.728;5.248;2023-02-28T12:38:19;2.40;;;0.70;;
78891;SDS011;68280;51.728;5.248;2023-02-28T12:40:52;1.20;;;0.40;;
78891;SDS011;68280;51.728;5.248;2023-02-28T12:43:24;1.40;;;0.50;;
78891;SDS011;68280;51.728;5.248;2023-02-28T12:46:00;2.10;;;0.60;;
78891;SDS011;68280;51.728;5.248;2023-02-28T12:48:38;2.00;;;0.60;;
78891;SDS011;68280;51.728;5.248;2023-02-28T12:51:09;0.70;;;0.40;;
78891;SDS011;68280;51.728;5.248;2023-02-28T12:53:42;1.10;;;0.40;;
78891;SDS011;68280;51.728;5.248;2023-02-28T12:56:22;2.50;;;0.50;;
78891;SDS011;68280;51.728;5.248;2023-02-28T12:59:03;0.90;;;0.50;;
78891;SDS011;68280;51.728;5.248;2023-02-28T13:01:50;1.80;;;0.60;;
78891;SDS011;68280;51.728;5.248;2023-02-28T13:04:31;1.10;;;0.50;;
78891;SDS011;68280;51.728;5.248;2023-02-28T13:07:23;1.00;;;0.50;;
78891;SDS011;68280;51.728;5.248;2023-02-28T13:10:10;1.00;;;0.50;;
78891;SDS011;68280;51.728;5.248;2023-02-28T13:12:39;0.80;;;0.40;;
78891;SDS011;68280;51.728;5.248;2023-02-28T13:15:18;1.40;;;0.70;;
78891;SDS011;68280;51.728;5.248;2023-02-28T13:17:49;1.30;;;0.50;;
78891;SDS011;68280;51.728;5.248;2023-02-28T13:20:20;1.30;;;0.50;;
78891;SDS011;68280;51.728;5.248;2023-02-28T13:22:51;0.90;;;0.50;;
78891;SDS011;68280;51.728;5.248;2023-02-28T13:31:32;1.10;;;0.70;;
78891;SDS011;68280;51.728;5.248;2023-02-28T13:34:29;1.40;;;0.50;;
78891;SDS011;68280;51.728;5.248;2023-02-28T13:40:24;1.10;;;0.50;;
78891;SDS011;68280;51.728;5.248;2023-02-28T13:42:56;0.60;;;0.40;;
78891;SDS011;68280;51.728;5.248;2023-02-28T13:45:25;2.30;;;0.50;;
78891;SDS011;68280;51.728;5.248;2023-02-28T13:47:56;1.30;;;0.50;;
78891;SDS011;68280;51.728;5.248;2023-02-28T13:50:29;1.50;;;0.60;;
78891;SDS011;68280;51.728;5.248;2023-02-28T13:53:08;0.40;;;0.30;;
78891;SDS011;68280;51.728;5.248;2023-02-28T13:56:00;1.80;;;0.40;;
78891;SDS011;68280;51.728;5.248;2023-02-28T13:58:41;2.60;;;0.50;;
78891;SDS011;68280;51.728;5.248;2023-02-28T14:01:23;1.50;;;0.70;;
78891;SDS011;68280;51.728;5.248;2023-02-28T14:06:37;1.40;;;0.40;;
78891;SDS011;68280;51.728;5.248;2023-02-28T14:09:19;1.60;;;0.70;;
78891;SDS011;68280;51.728;5.248;2023-02-28T14:11:51;1.70;;;0.60;;
78891;SDS011;68280;51.728;5.248;2023-02-28T14:17:22;1.00;;;0.40;;
78891;SDS011;68280;51.728;5.248;2023-02-28T14:19:51;1.30;;;0.50;;
78891;SDS011;68280;51.728;5.248;2023-02-28T14:22:22;0.90;;;0.50;;
78891;SDS011;68280;51.728;5.248;2023-02-28T14:25:11;1.10;;;0.80;;
78891;SDS011;68280;51.728;5.248;2023-02-28T14:27:50;1.30;;;0.60;;
78891;SDS011;68280;51.728;5.248;2023-02-28T14:30:29;1.70;;;0.60;;
78891;SDS011;68280;51.728;5.248;2023-02-28T14:33:17;1.80;;;0.50;;
78891;SDS011;68280;51.728;5.248;2023-02-28T14:40:58;1.00;;;0.70;;
78891;SDS011;68280;51.728;5.248;2023-02-28T14:43:29;2.00;;;0.50;;
78891;SDS011;68280;51.728;5.248;2023-02-28T14:45:58;0.80;;;0.50;;
78891;SDS011;68280;51.728;5.248;2023-02-28T14:48:28;0.50;;;0.50;;
78891;SDS011;68280;51.728;5.248;2023-02-28T14:50:57;1.10;;;0.60;;
78891;SDS011;68280;51.728;5.248;2023-02-28T14:53:34;1.00;;;0.40;;
78891;SDS011;68280;51.728;5.248;2023-02-28T14:56:27;1.10;;;0.50;;
78891;SDS011;68280;51.728;5.248;2023-02-28T14:59:26;2.50;;;0.50;;
78891;SDS011;68280;51.728;5.248;2023-02-28T15:05:21;0.90;;;0.40;;
78891;SDS011;68280;51.728;5.248;2023-02-28T15:08:11;1.40;;;0.60;;
78891;SDS011;68280;51.728;5.248;2023-02-28T15:10:44;0.80;;;0.60;;
78891;SDS011;68280;51.728;5.248;2023-02-28T15:13:29;0.90;;;0.50;;
78891;SDS011;68280;51.728;5.248;2023-02-28T15:16:15;1.70;;;0.50;;
78891;SDS011;68280;51.728;5.248;2023-02-28T15:18:52;1.10;;;0.50;;
78891;SDS011;68280;51.728;5.248;2023-02-28T15:32:36;3.70;;;0.60;;
78891;SDS011;68280;51.728;5.248;2023-02-28T15:35:19;1.30;;;0.70;;
78891;SDS011;68280;51.728;5.248;2023-02-28T15:38:04;1.50;;;0.50;;
78891;SDS011;68280;51.728;5.248;2023-02-28T15:41:03;1.20;;;0.50;;
78891;SDS011;68280;51.728;5.248;2023-02-28T15:43:32;0.80;;;0.40;;
78891;SDS011;68280;51.728;5.248;2023-02-28T15:48:51;1.10;;;0.40;;
78891;SDS011;68280;51.728;5.248;2023-02-28T15:51:24;1.50;;;0.60;;
78891;SDS011;68280;51.728;5.248;2023-02-28T15:54:04;1.30;;;0.50;;
78891;SDS011;68280;51.728;5.248;2023-02-28T15:56:46;0.50;;;0.20;;
78891;SDS011;68280;51.728;5.248;2023-02-28T15:59:22;2.00;;;0.50;;
78891;SDS011;68280;51.728;5.248;2023-02-28T16:08:11;0.90;;;0.50;;
78891;SDS011;68280;51.728;5.248;2023-02-28T16:13:24;0.90;;;0.50;;
78891;SDS011;68280;51.728;5.248;2023-02-28T16:15:55;1.10;;;0.60;;
78891;SDS011;68280;51.728;5.248;2023-02-28T16:18:40;2.00;;;0.50;;
78891;SDS011;68280;51.728;5.248;2023-02-28T16:24:23;2.10;;;0.60;;
78891;SDS011;68280;51.728;5.248;2023-02-28T16:26:57;1.00;;;0.50;;
78891;SDS011;68280;51.728;5.248;2023-02-28T16:29:29;1.10;;;0.50;;
78891;SDS011;68280;51.728;5.248;2023-02-28T16:32:02;1.10;;;0.50;;